Time;durP1;ratioP1;P1;durP2;ratioP2;P2;SDS_P1;SDS_P2;PMS_P1;PMS_P2;Temp;Humidity;BMP_temperature;BMP_pressure;BME280_temperature;BME280_humidity;BME280_pressure;Samples;Min_cycle;Max_cycle;Signal;HPM_P1;HPM_P2
2023/06/18 00:01:31;;;;;;;9.48;2.62;;;;;;;22.06;44.19;99369.81;4331659;33;33559;-61
2023/06/18 00:03:59;;;;;;;4.28;2.72;;;;;;;22.07;44.20;99357.88;4328958;33;32532;-61
2023/06/18 00:06:26;;;;;;;5.80;2.55;;;;;;;22.12;44.15;99357.28;4331484;33;34288;-61
2023/06/18 00:08:54;;;;;;;4.43;1.95;;;;;;;21.95;44.38;99356.72;4331027;33;33267;-61
2023/06/18 00:11:22;;;;;;;5.85;2.47;;;;;;;22.05;44.23;99345.47;4328814;33;33960;-61
2023/06/18 00:13:49;;;;;;;5.05;3.05;;;;;;;22.07;44.30;99349.69;4337802;33;33702;-61
2023/06/18 00:16:17;;;;;;;4.87;2.37;;;;;;;21.81;44.92;99347.63;4330040;33;34749;-60
2023/06/18 00:18:44;;;;;;;4.97;2.75;;;;;;;22.05;44.45;99351.81;4329377;33;33364;-61
2023/06/18 00:21:13;;;;;;;4.47;2.28;;;;;;;22.00;44.60;99346.09;4328499;33;34735;-61
2023/06/18 00:23:40;;;;;;;4.55;2.58;;;;;;;21.84;45.00;99344.50;4327549;33;33690;-62
2023/06/18 00:26:08;;;;;;;6.05;2.97;;;;;;;22.14;44.63;99338.00;4330908;33;33982;-61
2023/06/18 00:28:40;;;;;;;5.47;2.85;;;;;;;22.03;44.70;99340.25;4329847;33;32982;-60
2023/06/18 00:31:11;;;;;;;6.65;3.25;;;;;;;21.97;44.64;99343.75;4325897;33;33686;-61
2023/06/18 00:33:39;;;;;;;5.72;3.53;;;;;;;21.62;45.78;99340.13;4332994;33;34042;-61
2023/06/18 00:36:07;;;;;;;7.20;3.00;;;;;;;21.93;45.15;99347.94;4325095;33;33518;-61
2023/06/18 00:38:36;;;;;;;4.87;2.30;;;;;;;22.12;44.67;99351.84;4328882;33;33765;-61
2023/06/18 00:41:04;;;;;;;3.80;2.35;;;;;;;22.07;44.91;99346.97;4330502;33;33871;-61
2023/06/18 00:43:31;;;;;;;4.82;2.17;;;;;;;21.93;45.27;99349.81;4331554;33;34907;-62
2023/06/18 00:46:00;;;;;;;7.22;2.90;;;;;;;21.99;45.00;99349.88;4331333;33;33609;-62
2023/06/18 00:48:28;;;;;;;4.43;2.55;;;;;;;21.99;44.90;99347.13;4324314;33;34123;-61
2023/06/18 00:50:56;;;;;;;10.45;3.50;;;;;;;21.99;44.93;99352.59;4328717;33;33609;-61
2023/06/18 00:53:25;;;;;;;6.30;2.80;;;;;;;22.04;44.83;99350.09;4317234;33;34117;-61
2023/06/18 00:55:53;;;;;;;4.82;2.30;;;;;;;21.68;45.73;99346.66;4343629;33;33637;-62
2023/06/18 00:58:23;;;;;;;4.45;2.55;;;;;;;21.61;45.85;99344.72;4339772;33;33143;-61
2023/06/18 01:00:51;;;;;;;4.78;2.72;;;;;;;21.91;45.22;99343.72;4322399;33;34033;-60
2023/06/18 01:03:21;;;;;;;3.80;2.20;;;;;;;21.82;45.65;99345.72;4329839;33;34364;-60
2023/06/18 01:05:55;;;;;;;3.80;2.22;;;;;;;22.02;45.00;99345.87;4314476;33;33890;-61
2023/06/18 01:08:24;;;;;;;5.28;2.95;;;;;;;21.72;46.22;99345.22;4301360;33;33210;-61
2023/06/18 01:11:00;;;;;;;6.22;3.17;;;;;;;21.99;45.13;99347.13;4299915;33;33686;-61
2023/06/18 01:13:33;;;;;;;3.55;2.25;;;;;;;21.97;45.24;99346.47;4314596;33;33738;-60
2023/06/18 01:16:03;;;;;;;5.43;2.42;;;;;;;22.09;44.93;99349.50;4314820;33;33682;-61
2023/06/18 01:18:35;;;;;;;4.65;2.72;;;;;;;21.97;45.32;99346.47;4311053;33;33236;-61
2023/06/18 01:21:09;;;;;;;8.13;3.05;;;;;;;21.95;45.32;99345.81;4299429;33;33557;-61
2023/06/18 01:23:49;;;;;;;;;;;;;;;21.88;45.51;99347.66;4302746;33;34933;-61
2023/06/18 01:26:20;;;;;;;6.05;2.40;;;;;;;21.43;46.88;99348.94;4302532;33;33859;-61
2023/06/18 01:28:52;;;;;;;4.53;2.55;;;;;;;21.56;46.47;99346.34;4312530;33;33066;-61
2023/06/18 01:31:21;;;;;;;5.75;2.92;;;;;;;21.39;46.80;99343.03;4311149;33;33391;-61
2023/06/18 01:33:51;;;;;;;4.65;2.90;;;;;;;21.46;46.71;99352.13;4300395;33;33586;-62
2023/06/18 01:36:47;;;;;;;5.62;3.03;;;;;;;21.57;46.69;99348.03;4315509;33;33626;-61
2023/06/18 01:39:37;;;;;;;7.97;2.75;;;;;;;21.62;46.35;99351.84;4313008;33;33686;-61
2023/06/18 01:42:15;;;;;;;5.45;3.03;;;;;;;21.62;46.35;99354.56;4329825;33;33609;-61
2023/06/18 01:44:50;;;;;;;5.20;3.08;;;;;;;21.67;46.31;99356.72;4330681;33;33752;-61
2023/06/18 01:47:18;;;;;;;8.15;3.33;;;;;;;21.74;46.04;99362.22;4331124;33;33932;-61
2023/06/18 01:49:47;;;;;;;6.25;3.65;;;;;;;21.69;46.19;99359.25;4316277;33;34694;-61
2023/06/18 01:52:16;;;;;;;4.22;2.58;;;;;;;21.58;46.39;99361.44;4324124;33;33558;-61
2023/06/18 01:54:46;;;;;;;7.12;3.17;;;;;;;21.69;46.25;99357.34;4330673;33;33846;-61
2023/06/18 01:57:15;;;;;;;5.70;2.90;;;;;;;21.39;46.77;99357.50;4314169;33;33994;-61
2023/06/18 01:59:45;;;;;;;5.53;3.08;;;;;;;21.61;46.40;99369.22;4330614;33;33173;-61
2023/06/18 02:02:12;;;;;;;5.03;2.53;;;;;;;21.66;46.53;99368.63;4332397;33;33619;-61
2023/06/18 02:04:44;;;;;;;6.75;3.25;;;;;;;21.68;46.57;99368.47;4331110;33;34022;-61
2023/06/18 02:07:15;;;;;;;5.72;3.12;;;;;;;21.73;46.28;99369.53;4337003;33;35539;-61
2023/06/18 02:09:42;;;;;;;5.62;3.10;;;;;;;21.76;46.25;99371.03;4334423;33;33456;-61
2023/06/18 02:12:11;;;;;;;7.78;2.95;;;;;;;21.20;47.21;99368.16;4328022;33;33620;-61
2023/06/18 02:14:39;;;;;;;5.95;2.65;;;;;;;21.49;47.15;99370.78;4329221;33;33676;-60
2023/06/18 02:17:07;;;;;;;5.57;2.85;;;;;;;21.69;46.64;99370.97;4330172;33;34006;-60
2023/06/18 02:19:35;;;;;;;4.30;2.08;;;;;;;21.76;46.59;99369.13;4329295;33;33333;-60
2023/06/18 02:22:02;;;;;;;5.82;2.55;;;;;;;21.74;46.58;99367.69;4326322;33;33839;-61
2023/06/18 02:24:32;;;;;;;6.05;3.17;;;;;;;21.75;46.47;99366.63;4339322;33;33439;-61
2023/06/18 02:27:01;;;;;;;8.65;2.10;;;;;;;21.70;46.69;99372.69;4328727;33;33638;-61
2023/06/18 02:29:28;;;;;;;4.28;2.22;;;;;;;21.74;46.41;99370.41;4326074;33;33714;-61
2023/06/18 02:31:56;;;;;;;6.18;3.05;;;;;;;21.71;46.49;99373.50;4329072;33;34914;-61
2023/06/18 02:34:27;;;;;;;6.62;3.25;;;;;;;21.37;47.00;99373.16;4326773;33;34980;-61
2023/06/18 02:36:55;;;;;;;5.62;3.03;;;;;;;21.42;47.09;99375.31;4329964;33;33867;-61
2023/06/18 02:39:23;;;;;;;4.43;2.70;;;;;;;21.35;47.31;99377.16;4327946;33;33202;-61
2023/06/18 02:41:51;;;;;;;6.25;2.80;;;;;;;21.43;46.97;99385.16;4329352;33;35263;-61
2023/06/18 02:44:19;;;;;;;4.53;2.72;;;;;;;21.20;47.58;99379.88;4329417;33;35068;-62
2023/06/18 02:46:47;;;;;;;3.22;2.00;;;;;;;21.26;47.44;99386.44;4332831;33;34908;-64
2023/06/18 02:49:15;;;;;;;6.45;2.72;;;;;;;21.39;47.05;99386.59;4331376;33;33286;-62
2023/06/18 02:51:42;;;;;;;4.12;2.33;;;;;;;21.36;47.10;99389.72;4329892;33;33947;-61
2023/06/18 02:54:10;;;;;;;5.72;3.12;;;;;;;21.28;47.32;99398.78;4327944;33;33734;-62
2023/06/18 02:56:38;;;;;;;4.72;3.05;;;;;;;21.25;47.46;99401.06;4327635;33;33718;-62
2023/06/18 02:59:06;;;;;;;4.90;2.72;;;;;;;20.96;48.27;99401.97;4326920;33;33724;-61
2023/06/18 03:01:35;;;;;;;5.68;3.17;;;;;;;21.16;47.84;99400.34;4326661;33;33492;-61
2023/06/18 03:04:04;;;;;;;8.05;3.33;;;;;;;21.22;47.77;99405.03;4323277;33;34133;-61
2023/06/18 03:06:32;;;;;;;5.07;3.03;;;;;;;21.32;47.40;99408.28;4326350;33;35599;-61
2023/06/18 03:09:01;;;;;;;4.47;2.40;;;;;;;21.32;47.49;99410.16;4325983;33;34368;-61
2023/06/18 03:11:29;;;;;;;7.60;3.10;;;;;;;21.31;47.48;99405.72;4326711;33;35170;-61
2023/06/18 03:13:57;;;;;;;7.00;3.30;;;;;;;21.35;47.33;99409.81;4327494;33;35012;-61
2023/06/18 03:16:26;;;;;;;5.55;2.60;;;;;;;21.20;47.69;99407.09;4324297;33;34616;-61
2023/06/18 03:18:54;;;;;;;6.07;2.83;;;;;;;21.26;47.53;99408.22;4326668;33;33163;-61
2023/06/18 03:21:23;;;;;;;4.68;2.85;;;;;;;21.25;47.55;99411.94;4327249;33;34110;-61
2023/06/18 03:23:53;;;;;;;5.87;2.85;;;;;;;21.22;47.62;99413.19;4329068;33;35514;-61
2023/06/18 03:26:21;;;;;;;5.07;2.62;;;;;;;21.15;47.77;99407.69;4328550;33;34014;-62
2023/06/18 03:28:49;;;;;;;4.68;2.22;;;;;;;21.15;47.83;99406.81;4329311;33;33861;-62
2023/06/18 03:31:17;;;;;;;6.60;3.40;;;;;;;21.01;48.23;99419.41;4330019;33;34627;-62
2023/06/18 03:33:44;;;;;;;4.30;2.37;;;;;;;21.08;48.09;99414.06;4331209;33;34058;-62
2023/06/18 03:36:15;;;;;;;7.20;3.17;;;;;;;21.10;48.16;99412.00;4329247;33;33450;-62
2023/06/18 03:38:45;;;;;;;12.60;3.08;;;;;;;21.17;48.12;99412.91;4328314;33;33526;-62
2023/06/18 03:41:13;;;;;;;5.35;3.05;;;;;;;21.08;48.25;99412.16;4330719;33;33751;-62
2023/06/18 03:43:41;;;;;;;8.15;3.37;;;;;;;20.81;49.02;99416.44;4330181;33;34593;-62
2023/06/18 03:46:09;;;;;;;6.00;3.17;;;;;;;20.98;48.89;99419.78;4327814;33;33663;-62
2023/06/18 03:48:38;;;;;;;6.80;2.83;;;;;;;21.03;48.79;99417.34;4330607;33;33137;-62
2023/06/18 03:51:06;;;;;;;4.15;2.33;;;;;;;21.19;48.37;99421.75;4322843;33;33758;-62
2023/06/18 03:53:36;;;;;;;6.35;3.55;;;;;;;21.31;48.00;99419.34;4326786;33;35000;-62
2023/06/18 03:56:05;;;;;;;6.05;3.10;;;;;;;21.34;47.93;99419.78;4330863;33;33677;-62
2023/06/18 03:58:34;;;;;;;6.68;3.03;;;;;;;21.54;47.60;99421.94;4327950;33;34142;-62
2023/06/18 04:01:02;;;;;;;4.78;2.87;;;;;;;21.52;47.71;99419.41;4329802;33;33809;-62
2023/06/18 04:03:30;;;;;;;6.82;3.05;;;;;;;21.69;47.45;99416.44;4331425;33;33831;-62
2023/06/18 04:05:58;;;;;;;7.60;2.92;;;;;;;21.55;47.74;99424.47;4327038;33;35229;-62
2023/06/18 04:08:27;;;;;;;4.25;2.72;;;;;;;21.45;48.30;99423.94;4330733;33;33090;-62
2023/06/18 04:10:55;;;;;;;7.72;2.80;;;;;;;21.70;47.62;99426.28;4330184;33;33705;-62
2023/06/18 04:13:24;;;;;;;4.57;2.28;;;;;;;21.70;47.64;99421.69;4329225;33;33835;-62
2023/06/18 04:15:52;;;;;;;4.97;2.67;;;;;;;21.62;47.71;99424.53;4329557;33;33917;-62
2023/06/18 04:18:20;;;;;;;4.45;2.42;;;;;;;21.54;47.92;99430.97;4329726;33;34111;-62
2023/06/18 04:20:48;;;;;;;6.47;2.58;;;;;;;21.18;48.97;99436.34;4329508;33;33662;-61
2023/06/18 04:23:15;;;;;;;4.57;2.42;;;;;;;21.70;47.79;99440.75;4329287;33;33848;-62
2023/06/18 04:25:43;;;;;;;4.85;2.80;;;;;;;21.88;47.40;99434.84;4330540;33;33664;-61
2023/06/18 04:28:11;;;;;;;5.37;2.75;;;;;;;21.93;47.31;99437.84;4330546;33;33153;-61
2023/06/18 04:30:38;;;;;;;3.45;2.20;;;;;;;21.79;47.80;99441.47;4328865;33;33811;-62
2023/06/18 04:33:08;;;;;;;5.00;2.65;;;;;;;21.81;47.88;99429.34;4329863;33;33571;-62
2023/06/18 04:35:36;;;;;;;5.62;2.78;;;;;;;21.91;47.67;99431.72;4328462;33;33583;-61
2023/06/18 04:38:04;;;;;;;9.68;3.17;;;;;;;21.68;48.50;99431.94;4321423;33;33146;-62
2023/06/18 04:40:31;;;;;;;6.65;2.83;;;;;;;21.67;48.77;99440.28;4332708;33;33691;-62
2023/06/18 04:42:59;;;;;;;6.47;2.92;;;;;;;22.23;47.41;99438.53;4325665;33;34698;-61
2023/06/18 04:45:27;;;;;;;3.70;2.12;;;;;;;22.14;47.24;99447.84;4329437;33;33447;-62
2023/06/18 04:47:55;;;;;;;4.15;2.65;;;;;;;22.27;47.40;99453.44;4338751;33;34528;-62
2023/06/18 04:50:22;;;;;;;5.97;3.30;;;;;;;22.50;46.74;99452.37;4327662;33;33617;-61
2023/06/18 04:52:51;;;;;;;5.55;2.85;;;;;;;22.69;46.33;99450.81;4328520;33;34752;-62
2023/06/18 04:55:19;;;;;;;4.97;2.75;;;;;;;22.74;46.11;99445.63;4329305;33;34010;-62
2023/06/18 04:57:46;;;;;;;6.22;2.97;;;;;;;22.78;46.14;99453.19;4329997;33;33391;-62
2023/06/18 05:00:15;;;;;;;10.80;2.87;;;;;;;22.73;46.17;99455.69;4328841;33;34699;-62
2023/06/18 05:02:44;;;;;;;6.53;3.25;;;;;;;22.93;45.95;99464.00;4328908;33;33810;-62
2023/06/18 05:05:11;;;;;;;6.10;3.20;;;;;;;22.70;46.55;99464.28;4333138;33;33853;-62
2023/06/18 05:07:39;;;;;;;5.97;3.05;;;;;;;22.83;45.33;99463.50;4332353;33;34084;-61
2023/06/18 05:10:08;;;;;;;6.30;2.83;;;;;;;22.85;45.94;99464.12;4332725;33;34672;-62
2023/06/18 05:12:37;;;;;;;8.48;2.92;;;;;;;22.95;45.63;99469.25;4327285;33;33806;-62
2023/06/18 05:15:06;;;;;;;4.75;2.55;;;;;;;23.05;45.20;99474.34;4328402;33;34725;-62
2023/06/18 05:17:35;;;;;;;4.65;2.42;;;;;;;23.20;45.21;99470.44;4330187;33;34073;-61
2023/06/18 05:20:05;;;;;;;5.90;3.05;;;;;;;22.98;46.13;99469.69;4323416;33;34994;-62
2023/06/18 05:22:33;;;;;;;5.47;2.28;;;;;;;22.97;46.09;99480.81;4325023;33;33818;-61
2023/06/18 05:25:01;;;;;;;6.22;2.75;;;;;;;22.58;46.33;99474.03;4332819;33;33727;-62
2023/06/18 05:27:30;;;;;;;8.30;3.00;;;;;;;22.85;46.33;99482.41;4337780;33;34231;-62
2023/06/18 05:29:59;;;;;;;4.82;2.75;;;;;;;22.14;47.45;99490.63;4327483;33;33584;-62
2023/06/18 05:32:27;;;;;;;7.12;3.08;;;;;;;22.64;46.77;99484.16;4332422;33;33355;-62
2023/06/18 05:34:57;;;;;;;4.50;2.55;;;;;;;23.23;45.39;99477.38;4333458;33;34644;-61
2023/06/18 05:37:25;;;;;;;5.50;2.55;;;;;;;23.15;45.64;99485.75;4327367;33;31928;-62
2023/06/18 05:39:53;;;;;;;6.97;3.45;;;;;;;23.47;45.15;99485.06;4327879;33;33797;-62
2023/06/18 05:42:21;;;;;;;5.05;2.72;;;;;;;23.31;45.24;99493.59;4326903;33;34096;-62
2023/06/18 05:44:48;;;;;;;5.53;2.90;;;;;;;23.40;45.31;99499.72;4327478;33;33584;-62
2023/06/18 05:47:16;;;;;;;5.55;3.30;;;;;;;23.82;44.54;99495.03;4331742;33;33511;-62
2023/06/18 05:49:44;;;;;;;7.30;3.80;;;;;;;23.31;45.81;99495.50;4329198;33;33308;-63
2023/06/18 05:52:11;;;;;;;7.95;2.97;;;;;;;23.37;45.58;99501.00;4323587;33;221525;-62
2023/06/18 05:54:39;;;;;;;5.07;2.53;;;;;;;23.65;45.33;99498.13;4332877;33;33865;-62
2023/06/18 05:57:07;;;;;;;5.28;2.92;;;;;;;23.36;45.78;99496.56;4331168;33;34703;-62
2023/06/18 05:59:35;;;;;;;11.23;3.28;;;;;;;23.05;47.28;99493.44;4333127;33;33794;-61
2023/06/18 06:02:05;;;;;;;5.45;3.12;;;;;;;23.29;47.01;99503.88;4332581;33;33905;-62
2023/06/18 06:04:32;;;;;;;5.85;3.30;;;;;;;23.70;46.28;99505.75;4338120;33;33877;-61
2023/06/18 06:07:00;;;;;;;7.18;3.47;;;;;;;23.73;46.43;99508.09;4333728;33;33244;-61
2023/06/18 06:09:28;;;;;;;7.07;3.33;;;;;;;23.44;46.07;99503.75;4331977;33;35007;-62
2023/06/18 06:11:56;;;;;;;6.43;3.05;;;;;;;23.23;46.79;99507.41;4340408;33;33871;-62
2023/06/18 06:14:24;;;;;;;5.80;3.12;;;;;;;22.91;46.75;99507.00;4334776;33;33492;-61
2023/06/18 06:16:57;;;;;;;5.18;3.22;;;;;;;23.65;45.95;99506.31;4327724;33;34022;-61
2023/06/18 06:19:26;;;;;;;9.50;3.37;;;;;;;23.83;44.71;99508.53;4325178;33;34904;-61
2023/06/18 06:21:53;;;;;;;6.32;3.37;;;;;;;23.93;44.69;99508.13;4329241;33;33965;-62
2023/06/18 06:24:21;;;;;;;5.78;3.25;;;;;;;23.76;45.67;99510.41;4327914;33;33966;-61
2023/06/18 06:26:49;;;;;;;5.37;3.17;;;;;;;24.05;44.86;99508.38;4326888;33;33324;-61
2023/06/18 06:29:17;;;;;;;5.15;3.10;;;;;;;23.90;46.18;99514.84;4331956;33;33727;-64
2023/06/18 06:31:44;;;;;;;5.75;3.37;;;;;;;24.07;45.48;99514.44;4328922;33;33768;-62
2023/06/18 06:34:12;;;;;;;6.40;3.35;;;;;;;24.30;44.47;99509.44;4335939;33;34081;-61
2023/06/18 06:36:40;;;;;;;7.37;3.97;;;;;;;24.14;44.58;99520.75;4325459;33;34188;-62
2023/06/18 06:39:08;;;;;;;9.07;4.05;;;;;;;24.03;45.59;99513.19;4336723;33;33768;-61
2023/06/18 06:41:36;;;;;;;10.00;3.70;;;;;;;23.85;45.37;99516.50;4329994;33;34959;-62
2023/06/18 06:44:04;;;;;;;6.20;3.00;;;;;;;24.01;45.78;99516.13;4332034;33;33980;-61
2023/06/18 06:46:32;;;;;;;6.03;3.05;;;;;;;24.42;44.49;99515.16;4327586;33;33178;-61
2023/06/18 06:49:06;;;;;;;6.00;2.90;;;;;;;24.36;45.31;99521.41;4333799;33;33693;-61
2023/06/18 06:51:35;;;;;;;5.55;3.20;;;;;;;24.44;44.74;99520.41;4329128;33;35137;-61
2023/06/18 06:54:05;;;;;;;6.37;2.83;;;;;;;24.12;45.79;99523.72;4325848;33;33551;-61
2023/06/18 06:56:33;;;;;;;5.43;3.00;;;;;;;24.16;44.02;99515.94;4323315;33;33415;-62
2023/06/18 06:59:00;;;;;;;6.07;3.12;;;;;;;24.08;45.47;99522.47;4333080;33;34463;-61
2023/06/18 07:01:28;;;;;;;5.60;2.72;;;;;;;23.77;45.82;99511.25;4319284;33;35464;-61
2023/06/18 07:03:56;;;;;;;6.32;2.87;;;;;;;24.31;45.27;99510.28;4324680;33;33649;-61
2023/06/18 07:06:23;;;;;;;5.07;2.70;;;;;;;24.71;44.08;99516.59;4327261;33;32827;-61
2023/06/18 07:08:52;;;;;;;10.30;3.65;;;;;;;24.36;44.43;99515.94;4328521;33;34891;-61
2023/06/18 07:11:19;;;;;;;8.18;3.20;;;;;;;24.10;43.15;99505.84;4331413;33;34382;-62
2023/06/18 07:13:47;;;;;;;5.43;3.20;;;;;;;24.49;43.33;99515.13;4335441;33;33941;-61
2023/06/18 07:16:14;;;;;;;5.75;2.97;;;;;;;24.87;43.70;99512.59;4331809;33;33921;-62
2023/06/18 07:18:44;;;;;;;5.65;2.80;;;;;;;24.71;43.13;99513.03;4332020;33;34331;-61
2023/06/18 07:21:11;;;;;;;5.20;2.70;;;;;;;24.15;43.07;99508.78;4332723;33;34779;-62
2023/06/18 07:23:39;;;;;;;6.70;3.08;;;;;;;24.53;43.20;99509.06;4327562;33;33981;-61
2023/06/18 07:26:06;;;;;;;5.97;2.85;;;;;;;24.30;43.82;99503.09;4336387;33;33339;-61
2023/06/18 07:28:34;;;;;;;4.85;2.83;;;;;;;24.67;43.14;99509.88;4330785;33;33773;-61
2023/06/18 07:31:02;;;;;;;6.45;2.75;;;;;;;24.96;42.27;99505.00;4325193;33;33937;-60
2023/06/18 07:33:29;;;;;;;5.57;3.22;;;;;;;24.63;42.57;99509.47;4326429;33;33767;-61
2023/06/18 07:35:57;;;;;;;5.07;2.75;;;;;;;24.28;42.72;99506.06;4327945;33;33363;-61
2023/06/18 07:38:25;;;;;;;5.65;2.87;;;;;;;24.83;43.13;99501.22;4327515;33;33329;-60
2023/06/18 07:40:52;;;;;;;5.18;3.22;;;;;;;24.41;41.97;99510.72;4329436;33;33406;-60
2023/06/18 07:43:20;;;;;;;5.60;2.58;;;;;;;24.73;41.91;99497.25;4329794;33;33832;-61
2023/06/18 07:45:47;;;;;;;4.05;2.45;;;;;;;25.03;40.59;99500.34;4330236;33;33276;-61
2023/06/18 07:48:16;;;;;;;5.85;2.80;;;;;;;25.26;39.30;99497.13;4330001;33;34595;-61
2023/06/18 07:50:43;;;;;;;5.50;2.78;;;;;;;25.22;40.85;99498.63;4329947;33;34110;-61
2023/06/18 07:53:11;;;;;;;4.82;3.20;;;;;;;25.24;38.99;99485.56;4328946;33;33679;-61
2023/06/18 07:55:39;;;;;;;6.75;2.72;;;;;;;24.73;39.93;99494.50;4332559;33;33209;-61
2023/06/18 07:58:06;;;;;;;5.12;2.70;;;;;;;24.05;40.26;99497.44;4320848;33;33658;-61
2023/06/18 08:00:34;;;;;;;5.15;2.70;;;;;;;24.88;39.65;99495.12;4320502;33;35129;-61
2023/06/18 08:03:02;;;;;;;4.70;2.10;;;;;;;24.94;40.02;99499.72;4326566;33;34737;-61
2023/06/18 08:05:30;;;;;;;4.93;2.40;;;;;;;25.09;39.70;99492.09;4328416;33;33520;-61
2023/06/18 08:07:57;;;;;;;5.12;2.30;;;;;;;25.02;38.29;99496.75;4330727;33;34603;-60
2023/06/18 08:10:25;;;;;;;5.57;2.17;;;;;;;25.22;38.93;99494.00;4326955;33;34075;-61
2023/06/18 08:12:53;;;;;;;7.18;2.70;;;;;;;25.10;39.09;99492.94;4327832;33;34567;-61
2023/06/18 08:15:20;;;;;;;3.92;1.92;;;;;;;25.02;37.90;99498.66;4327978;33;34406;-60
2023/06/18 08:17:48;;;;;;;5.30;2.55;;;;;;;24.73;37.25;99494.50;4327831;33;33594;-61
2023/06/18 08:20:16;;;;;;;8.52;2.12;;;;;;;25.32;36.32;99494.38;4325898;33;35297;-61
2023/06/18 08:22:43;;;;;;;3.92;2.17;;;;;;;25.07;38.00;99493.38;4321284;33;32862;-61
2023/06/18 08:25:11;;;;;;;3.37;1.95;;;;;;;25.24;37.21;99497.37;4330161;33;34693;-61
2023/06/18 08:27:38;;;;;;;3.90;2.17;;;;;;;25.30;37.14;99485.56;4328045;33;34756;-61
2023/06/18 08:30:06;;;;;;;5.00;2.05;;;;;;;25.12;37.51;99493.59;4332213;33;36816;-61
2023/06/18 08:32:34;;;;;;;4.68;2.47;;;;;;;25.28;37.68;99484.91;4323604;33;32902;-61
2023/06/18 08:35:02;;;;;;;5.07;2.25;;;;;;;25.14;37.42;99490.66;4331086;33;34103;-61
2023/06/18 08:37:30;;;;;;;3.75;2.10;;;;;;;25.65;37.15;99489.78;4331253;33;34629;-61
2023/06/18 08:39:58;;;;;;;8.23;2.25;;;;;;;25.75;37.36;99485.53;4332692;33;33582;-61
2023/06/18 08:42:25;;;;;;;4.60;2.67;;;;;;;25.45;37.84;99484.41;4333104;33;34576;-61
2023/06/18 08:44:54;;;;;;;4.65;2.33;;;;;;;25.76;35.71;99480.91;4328873;33;33092;-61
2023/06/18 08:47:22;;;;;;;4.22;2.00;;;;;;;26.20;36.63;99481.91;4332197;33;33714;-61
2023/06/18 08:49:51;;;;;;;4.20;2.25;;;;;;;26.35;35.91;99479.66;4328955;33;35003;-61
2023/06/18 08:52:20;;;;;;;3.67;2.10;;;;;;;26.70;35.98;99481.91;4328320;33;34669;-61
2023/06/18 08:54:53;;;;;;;4.40;2.53;;;;;;;26.32;36.29;99485.59;4323379;33;33412;-61
2023/06/18 08:57:31;;;;;;;5.62;2.58;;;;;;;26.24;36.76;99478.47;4335283;33;34839;-61
2023/06/18 08:59:59;;;;;;;3.67;1.98;;;;;;;26.39;37.01;99491.03;4323712;33;33463;-61
2023/06/18 09:02:27;;;;;;;4.68;2.83;;;;;;;27.03;35.55;99486.22;4328161;33;33969;-61
2023/06/18 09:04:56;;;;;;;4.43;2.55;;;;;;;26.85;35.36;99487.88;4330831;33;33440;-61
2023/06/18 09:07:24;;;;;;;6.15;3.12;;;;;;;26.93;35.88;99481.25;4333425;33;33600;-62
2023/06/18 09:09:52;;;;;;;3.12;1.90;;;;;;;26.30;35.18;99487.72;4330890;33;34785;-61
2023/06/18 09:12:20;;;;;;;5.45;2.72;;;;;;;26.69;35.56;99483.81;4333850;33;34178;-61
2023/06/18 09:14:48;;;;;;;6.30;2.47;;;;;;;27.16;34.86;99480.63;4328127;33;33455;-62
2023/06/18 09:17:16;;;;;;;4.45;2.10;;;;;;;27.08;34.24;99478.13;4329980;33;34224;-62
2023/06/18 09:19:46;;;;;;;3.83;2.42;;;;;;;26.95;35.36;99484.63;4326184;33;33741;-61
2023/06/18 09:22:16;;;;;;;6.32;3.08;;;;;;;27.33;34.32;99478.09;4331097;33;33780;-62
2023/06/18 09:24:44;;;;;;;4.57;2.67;;;;;;;27.58;34.28;99492.56;4336121;33;33333;-62
2023/06/18 09:27:12;;;;;;;4.50;2.47;;;;;;;27.62;31.45;99482.78;4331759;33;33970;-61
2023/06/18 09:29:41;;;;;;;4.43;2.62;;;;;;;27.94;28.58;99481.75;4330679;33;33629;-61
2023/06/18 09:32:13;;;;;;;5.03;2.58;;;;;;;27.94;31.64;99485.31;4329742;33;33662;-61
2023/06/18 09:34:43;;;;;;;3.45;2.53;;;;;;;27.90;32.23;99484.13;4330295;33;32919;-61
2023/06/18 09:37:13;;;;;;;6.40;2.42;;;;;;;28.14;32.34;99489.69;4333720;33;33629;-61
2023/06/18 09:39:40;;;;;;;4.72;2.20;;;;;;;27.86;31.22;99483.75;4328213;33;34753;-62
2023/06/18 09:42:11;;;;;;;4.35;2.72;;;;;;;27.66;30.56;99488.66;4332340;33;33898;-61
2023/06/18 09:44:39;;;;;;;4.40;2.25;;;;;;;27.90;31.25;99486.00;4333029;33;34066;-62
2023/06/18 09:47:12;;;;;;;4.82;2.50;;;;;;;27.99;31.51;99490.09;4330010;33;33879;-61
2023/06/18 09:49:42;;;;;;;9.07;3.07;;;;;;;28.13;30.99;99485.25;4334714;33;33823;-61
2023/06/18 09:52:10;;;;;;;5.72;2.90;;;;;;;28.29;31.14;99484.56;4330234;33;33438;-61
2023/06/18 09:54:40;;;;;;;7.35;3.20;;;;;;;28.15;31.24;99480.34;4325483;33;34985;-62
2023/06/18 09:57:10;;;;;;;7.45;3.17;;;;;;;27.99;30.70;99477.19;4328674;33;33638;-61
2023/06/18 09:59:38;;;;;;;5.82;2.42;;;;;;;28.67;29.87;99477.78;4329046;33;33809;-61
2023/06/18 10:02:07;;;;;;;3.75;2.12;;;;;;;29.09;30.25;99485.97;4329271;33;34069;-61
2023/06/18 10:04:35;;;;;;;6.12;3.50;;;;;;;29.22;29.98;99481.03;4326578;33;33399;-61
2023/06/18 10:07:04;;;;;;;10.40;7.60;;;;;;;28.86;29.95;99490.41;4332402;33;35054;-61
2023/06/18 10:09:39;;;;;;;8.23;5.07;;;;;;;29.01;27.57;99485.25;4325113;33;33859;-61
2023/06/18 10:12:08;;;;;;;16.17;6.00;;;;;;;29.14;28.72;99483.31;4328582;33;33397;-62
2023/06/18 10:14:36;;;;;;;7.32;4.82;;;;;;;29.33;28.51;99484.00;4316247;33;34118;-61
2023/06/18 10:17:15;;;;;;;11.02;8.00;;;;;;;28.69;28.26;99489.41;4330036;33;33698;-61
2023/06/18 10:20:05;;;;;;;10.10;6.90;;;;;;;29.31;26.86;99481.50;4312740;33;34026;-62
2023/06/18 10:22:49;;;;;;;7.45;2.67;;;;;;;29.83;26.87;99481.44;4333633;33;33642;-61
2023/06/18 10:25:17;;;;;;;7.18;3.47;;;;;;;29.43;26.95;99489.72;4323275;33;33228;-61
2023/06/18 10:27:45;;;;;;;5.20;2.80;;;;;;;29.76;27.09;99483.53;4327461;33;35066;-61
2023/06/18 10:30:13;;;;;;;9.80;3.55;;;;;;;29.80;26.40;99483.88;4328435;33;34196;-61
2023/06/18 10:32:42;;;;;;;6.47;3.17;;;;;;;30.12;27.04;99482.25;4325174;33;33772;-61
2023/06/18 10:35:12;;;;;;;4.05;2.47;;;;;;;29.98;26.66;99489.16;4329430;33;33308;-62
2023/06/18 10:37:42;;;;;;;5.07;2.87;;;;;;;29.90;26.18;99484.06;4314180;33;34489;-61
2023/06/18 10:40:11;;;;;;;5.93;3.05;;;;;;;30.15;27.27;99476.22;4326117;33;35004;-61
2023/06/18 10:42:39;;;;;;;5.75;3.28;;;;;;;30.19;27.14;99490.41;4309879;33;33466;-61
2023/06/18 10:45:10;;;;;;;3.92;2.53;;;;;;;30.00;26.58;99484.22;4326933;33;34470;-61
2023/06/18 10:47:38;;;;;;;7.35;3.15;;;;;;;30.09;26.70;99481.91;4326755;33;36095;-61
2023/06/18 10:50:06;;;;;;;10.20;3.08;;;;;;;29.78;26.73;99489.63;4329509;33;34350;-61
2023/06/18 10:52:45;;;;;;;6.45;3.00;;;;;;;30.54;26.45;99483.81;4333424;33;34129;-60
2023/06/18 10:55:18;;;;;;;4.90;2.83;;;;;;;29.75;26.69;99475.47;4328703;33;33338;-62
2023/06/18 10:57:56;;;;;;;6.05;3.33;;;;;;;30.32;26.32;99476.28;4322956;33;33425;-62
2023/06/18 11:00:29;;;;;;;5.43;3.62;;;;;;;30.55;26.23;99474.44;4326474;33;34690;-62
2023/06/18 11:03:00;;;;;;;5.43;3.28;;;;;;;30.34;25.83;99474.09;4326523;33;33702;-61
2023/06/18 11:05:36;;;;;;;4.00;2.42;;;;;;;30.37;26.89;99472.78;4326326;33;33017;-62
2023/06/18 11:08:06;;;;;;;6.55;3.55;;;;;;;30.57;26.17;99470.31;4328421;33;33739;-62
2023/06/18 11:10:35;;;;;;;6.87;2.87;;;;;;;30.13;27.92;99480.31;4322931;33;34872;-62
2023/06/18 11:13:07;;;;;;;5.45;2.85;;;;;;;30.60;27.90;99478.13;4327651;33;33465;-62
2023/06/18 11:15:36;;;;;;;5.03;2.97;;;;;;;30.24;27.07;99478.59;4324065;33;34425;-62
2023/06/18 11:18:03;;;;;;;6.93;3.33;;;;;;;30.50;28.08;99471.56;4327863;33;33935;-62
2023/06/18 11:20:34;;;;;;;7.40;3.80;;;;;;;30.32;28.00;99470.75;4327179;33;33467;-61
2023/06/18 11:23:03;;;;;;;6.37;3.35;;;;;;;29.92;28.75;99471.69;4328784;33;33945;-61
2023/06/18 11:25:31;;;;;;;6.62;2.85;;;;;;;30.77;27.92;99466.22;4327544;33;33031;-62
2023/06/18 11:28:01;;;;;;;4.85;3.03;;;;;;;30.46;27.66;99464.88;4326667;33;33641;-62
2023/06/18 11:30:34;;;;;;;4.68;2.95;;;;;;;30.16;27.77;99466.84;4324691;33;33844;-61
2023/06/18 11:33:01;;;;;;;5.28;3.15;;;;;;;30.25;28.08;99461.81;4328201;33;33816;-61
2023/06/18 11:35:32;;;;;;;5.68;3.37;;;;;;;30.37;27.77;99458.97;4326940;33;34450;-61
2023/06/18 11:38:00;;;;;;;8.20;3.40;;;;;;;30.76;27.69;99465.38;4323068;33;34997;-62
2023/06/18 11:40:27;;;;;;;8.40;3.62;;;;;;;30.65;27.01;99452.47;4326072;33;33433;-61
2023/06/18 11:42:55;;;;;;;5.35;2.87;;;;;;;30.86;27.37;99451.72;4319591;33;33947;-61